Time;durP1;ratioP1;P1;durP2;ratioP2;P2;SDS_P1;SDS_P2;PMS_P1;PMS_P2;Temp;Humidity;BMP_temperature;BMP_pressure;BME280_temperature;BME280_humidity;BME280_pressure;Samples;Min_cycle;Max_cycle;Signal;HPM_P1;HPM_P2
2022/10/09 00:01:19;;;;;;;;;;;7.40;99.90;;;;;;6116398;23;20335;-61
2022/10/09 00:03:46;;;;;;;;;;;7.40;99.90;;;;;;6115922;23;19924;-61
2022/10/09 00:06:13;;;;;;;;;;;7.40;99.90;;;;;;6116461;23;19951;-61
2022/10/09 00:08:39;;;;;;;;;;;7.40;99.90;;;;;;6115825;23;20405;-61
2022/10/09 00:11:08;;;;;;;;;;;7.40;99.90;;;;;;6116311;23;19925;-61
2022/10/09 00:13:34;;;;;;;;;;;7.40;99.90;;;;;;6115635;23;20272;-61
2022/10/09 00:16:01;;;;;;;;;;;7.30;99.90;;;;;;6116120;23;20029;-61
2022/10/09 00:18:27;;;;;;;;;;;7.30;99.90;;;;;;6116244;23;19924;-61
2022/10/09 00:20:53;;;;;;;;;;;7.30;99.90;;;;;;6115876;23;19932;-61
2022/10/09 00:23:18;;;;;;;;;;;7.40;99.90;;;;;;6115424;23;20000;-61
2022/10/09 00:25:51;;;;;;;;;;;7.50;99.90;;;;;;6115495;23;19986;-62
2022/10/09 00:28:17;;;;;;;;;;;7.20;99.90;;;;;;6115399;23;20191;-61
2022/10/09 00:30:43;;;;;;;;;;;7.20;99.90;;;;;;6115579;23;20043;-61
2022/10/09 00:33:08;;;;;;;;;;;7.50;99.90;;;;;;6116144;23;19999;-61
2022/10/09 00:35:36;;;;;;;;;;;7.40;99.90;;;;;;6116390;23;19925;-61
2022/10/09 00:38:02;;;;;;;;;;;7.10;99.90;;;;;;6115675;23;19979;-61
2022/10/09 00:40:27;;;;;;;;;;;7.20;99.90;;;;;;6116164;23;19924;-61
2022/10/09 00:42:56;;;;;;;;;;;7.10;99.90;;;;;;6116011;23;19925;-61
2022/10/09 00:45:22;;;;;;;;;;;7.10;99.90;;;;;;6115961;23;19925;-61
2022/10/09 00:47:49;;;;;;;;;;;7.00;99.90;;;;;;6116491;23;19925;-61
2022/10/09 00:50:14;;;;;;;;;;;7.00;99.90;;;;;;6116629;23;20318;-60
2022/10/09 00:52:40;;;;;;;;;;;7.00;99.90;;;;;;6116197;23;19978;-61
2022/10/09 00:55:07;;;;;;;;;;;7.00;99.90;;;;;;6114847;23;19929;-61
2022/10/09 00:57:33;;;;;;;;;;;7.00;99.90;;;;;;6116238;23;19932;-61
2022/10/09 01:00:00;;;;;;;;;;;7.00;99.90;;;;;;6116516;23;19929;-60
2022/10/09 01:02:26;;;;;;;;;;;7.00;99.90;;;;;;6116606;23;19952;-61
2022/10/09 01:04:51;;;;;;;;;;;7.00;99.90;;;;;;6116125;23;20325;-61
2022/10/09 01:07:32;;;;;;;;;;;7.00;99.90;;;;;;6115985;23;19925;-61
2022/10/09 01:09:57;;;;;;;;;;;7.00;99.90;;;;;;6116485;23;19999;-61
2022/10/09 01:12:23;;;;;;;;;;;6.90;99.90;;;;;;6116647;23;19948;-61
2022/10/09 01:14:51;;;;;;;;;;;7.30;99.90;;;;;;6116113;23;20516;-61
2022/10/09 01:17:25;;;;;;;;;;;6.90;99.90;;;;;;6116169;23;19992;-61
2022/10/09 01:20:08;;;;;;;;;;;7.00;99.90;;;;;;6116412;23;19932;-61
2022/10/09 01:22:37;;;;;;;;;;;7.10;99.90;;;;;;6115956;23;19925;-61
2022/10/09 01:25:06;;;;;;;;;;;7.10;99.90;;;;;;6116555;23;20272;-61
2022/10/09 01:27:32;;;;;;;;;;;7.10;99.90;;;;;;6116325;23;19934;-61
2022/10/09 01:30:03;;;;;;;;;;;7.10;99.90;;;;;;6116110;23;19931;-62
2022/10/09 01:32:34;;;;;;;;;;;7.00;99.90;;;;;;6115942;23;19925;-61
2022/10/09 01:35:00;;;;;;;;;;;7.10;99.90;;;;;;6116097;23;19931;-61
2022/10/09 01:37:26;;;;;;;;;;;7.10;99.90;;;;;;6117009;23;20236;-61
2022/10/09 01:39:52;;;;;;;;;;;7.10;99.90;;;;;;6117497;23;19955;-61
2022/10/09 01:42:20;;;;;;;;;;;7.00;99.90;;;;;;6117295;23;20351;-61
2022/10/09 01:44:45;;;;;;;;;;;7.50;99.90;;;;;;6117607;23;19929;-61
2022/10/09 01:47:15;;;;;;;;;;;7.10;99.90;;;;;;6117737;23;19924;-61
2022/10/09 01:49:47;;;;;;;;;;;7.10;99.90;;;;;;6117868;23;19932;-61
2022/10/09 01:52:15;;;;;;;;;;;7.10;99.90;;;;;;6091067;23;19932;-61
2022/10/09 01:54:59;;;;;;;;;;;7.00;99.90;;;;;;6117666;23;20338;-61
2022/10/09 01:57:31;;;;;;;;;;;7.00;99.90;;;;;;6117655;23;20009;-61
2022/10/09 01:59:58;;;;;;;;;;;6.90;99.90;;;;;;6116511;23;20271;-61
2022/10/09 02:02:24;;;;;;;;;;;7.30;99.90;;;;;;6117282;23;19925;-61
2022/10/09 02:04:50;;;;;;;;;;;6.90;99.90;;;;;;6116981;23;19928;-61
2022/10/09 02:07:16;;;;;;;;;;;7.00;99.90;;;;;;6117457;23;20016;-61
2022/10/09 02:09:42;;;;;;;;;;;7.00;99.90;;;;;;6117537;23;20259;-61
2022/10/09 02:12:10;;;;;;;;;;;6.90;99.90;;;;;;6117953;23;19932;-60
2022/10/09 02:14:35;;;;;;;;;;;7.20;99.90;;;;;;6115592;23;20113;-61
2022/10/09 02:17:04;;;;;;;;;;;6.90;99.90;;;;;;6117220;23;19925;-60
2022/10/09 02:19:33;;;;;;;;;;;6.90;99.90;;;;;;6117121;23;20012;-61
2022/10/09 02:22:16;;;;;;;;;;;6.90;99.90;;;;;;6117344;23;19925;-60
2022/10/09 02:24:42;;;;;;;;;;;6.90;99.90;;;;;;6117614;23;19971;-60
2022/10/09 02:27:08;;;;;;;;;;;6.90;99.90;;;;;;6117155;23;19925;-61
2022/10/09 02:29:36;;;;;;;;;;;7.00;99.90;;;;;;6117157;23;20658;-61
2022/10/09 02:32:02;;;;;;;;;;;6.90;99.90;;;;;;6117100;23;19925;-61
2022/10/09 02:34:27;;;;;;;;;;;6.90;99.90;;;;;;6116953;23;20367;-61
2022/10/09 02:36:53;;;;;;;;;;;7.00;99.90;;;;;;6113504;23;19925;-60
2022/10/09 02:39:18;;;;;;;;;;;6.90;99.90;;;;;;6116916;23;19925;-61
2022/10/09 02:41:44;;;;;;;;;;;6.90;99.90;;;;;;6116681;23;19925;-61
2022/10/09 02:44:10;;;;;;;;;;;6.90;99.90;;;;;;6116480;23;20257;-61
2022/10/09 02:46:37;;;;;;;;;;;6.80;99.90;;;;;;6114429;23;20375;-60
2022/10/09 02:49:03;;;;;;;;;;;6.80;99.90;;;;;;6116367;23;19929;-60
2022/10/09 02:51:28;;;;;;;;;;;6.80;99.90;;;;;;6114805;23;19960;-61
2022/10/09 02:53:54;;;;;;;;;;;6.70;99.90;;;;;;6116739;23;19925;-61
2022/10/09 02:56:21;;;;;;;;;;;6.70;99.90;;;;;;6116329;23;19986;-61
2022/10/09 02:58:46;;;;;;;;;;;6.70;99.90;;;;;;6116588;23;19968;-60
2022/10/09 03:01:12;;;;;;;;;;;6.70;99.90;;;;;;6116856;23;19925;-62
2022/10/09 03:03:38;;;;;;;;;;;6.60;99.90;;;;;;6116022;23;20288;-62
2022/10/09 03:06:08;;;;;;;;;;;6.70;99.90;;;;;;6116594;23;20705;-62
2022/10/09 03:08:34;;;;;;;;;;;6.70;99.90;;;;;;6116361;23;19925;-62
2022/10/09 03:11:00;;;;;;;;;;;6.70;99.90;;;;;;6116402;23;20251;-61
2022/10/09 03:13:25;;;;;;;;;;;6.70;99.90;;;;;;6114988;23;19929;-62
2022/10/09 03:15:51;;;;;;;;;;;6.60;99.90;;;;;;6117154;23;19980;-62
2022/10/09 03:18:17;;;;;;;;;;;6.80;99.90;;;;;;6115845;23;20004;-61
2022/10/09 03:20:42;;;;;;;;;;;6.90;99.90;;;;;;6117112;23;19925;-62
2022/10/09 03:23:08;;;;;;;;;;;6.60;99.90;;;;;;6116547;23;19925;-61
2022/10/09 03:25:33;;;;;;;;;;;6.60;99.90;;;;;;6116710;23;19955;-61
2022/10/09 03:27:59;;;;;;;;;;;6.60;99.90;;;;;;6116544;23;19948;-60
2022/10/09 03:30:24;;;;;;;;;;;6.60;99.90;;;;;;6116294;23;19928;-61
2022/10/09 03:32:50;;;;;;;;;;;6.60;99.90;;;;;;6115654;23;19925;-61
2022/10/09 03:35:16;;;;;;;;;;;6.60;99.90;;;;;;6116119;23;20006;-62
2022/10/09 03:37:41;;;;;;;;;;;6.50;99.90;;;;;;6116358;23;19960;-61
2022/10/09 03:40:07;;;;;;;;;;;6.40;99.90;;;;;;6116151;23;19925;-61
2022/10/09 03:42:32;;;;;;;;;;;6.50;99.90;;;;;;6116670;23;19925;-62
2022/10/09 03:45:02;;;;;;;;;;;6.50;99.90;;;;;;6115846;23;20294;-62
2022/10/09 03:47:28;;;;;;;;;;;6.60;99.90;;;;;;6116380;23;19978;-61
2022/10/09 03:49:53;;;;;;;;;;;6.50;99.90;;;;;;6116282;23;19925;-61
2022/10/09 03:52:19;;;;;;;;;;;6.60;99.90;;;;;;6116447;23;19931;-61
2022/10/09 03:54:44;;;;;;;;;;;6.50;99.90;;;;;;6116053;23;20023;-61
2022/10/09 03:57:10;;;;;;;;;;;7.10;99.90;;;;;;6114606;23;20445;-61
2022/10/09 03:59:35;;;;;;;;;;;6.50;99.90;;;;;;6116071;23;19928;-65
2022/10/09 04:02:01;;;;;;;;;;;6.60;99.90;;;;;;6116827;23;20018;-66
2022/10/09 04:04:27;;;;;;;;;;;6.60;99.90;;;;;;6116046;23;20311;-65
2022/10/09 04:06:52;;;;;;;;;;;6.50;99.90;;;;;;6116138;23;19925;-65
2022/10/09 04:09:18;;;;;;;;;;;6.50;99.90;;;;;;6116057;23;19932;-62
2022/10/09 04:11:43;;;;;;;;;;;6.50;99.90;;;;;;6116203;23;19932;-61
2022/10/09 04:14:09;;;;;;;;;;;6.50;99.90;;;;;;6115472;23;19956;-63
2022/10/09 04:16:35;;;;;;;;;;;6.50;99.90;;;;;;6114592;23;20332;-61
2022/10/09 04:19:00;;;;;;;;;;;6.50;99.90;;;;;;6115783;23;19925;-61
2022/10/09 04:21:26;;;;;;;;;;;6.60;99.90;;;;;;6116316;23;19929;-61
2022/10/09 04:23:51;;;;;;;;;;;6.50;99.90;;;;;;6116009;23;19929;-61
2022/10/09 04:26:17;;;;;;;;;;;6.40;99.90;;;;;;6116242;23;19924;-61
2022/10/09 04:28:43;;;;;;;;;;;6.50;99.90;;;;;;6115134;23;19985;-61
2022/10/09 04:31:09;;;;;;;;;;;6.50;99.90;;;;;;6115734;23;19945;-62
2022/10/09 04:33:34;;;;;;;;;;;6.40;99.90;;;;;;6115502;23;19925;-62
2022/10/09 04:36:00;;;;;;;;;;;6.50;99.90;;;;;;6114316;23;19947;-63
2022/10/09 04:38:26;;;;;;;;;;;6.40;99.90;;;;;;6115227;23;20011;-61
2022/10/09 04:40:59;;;;;;;;;;;6.40;99.90;;;;;;6116174;23;19932;-61
2022/10/09 04:43:24;;;;;;;;;;;6.30;99.90;;;;;;6115881;23;19925;-61
2022/10/09 04:45:50;;;;;;;;;;;6.30;99.90;;;;;;6116099;23;19925;-61
2022/10/09 04:48:15;;;;;;;;;;;6.40;99.90;;;;;;6115892;23;20403;-61
2022/10/09 04:50:41;;;;;;;;;;;6.30;99.90;;;;;;6116114;23;20211;-61
2022/10/09 04:53:08;;;;;;;;;;;6.40;99.90;;;;;;6115681;23;19932;-61
2022/10/09 04:55:40;;;;;;;;;;;6.90;99.90;;;;;;6113972;23;19962;-60
2022/10/09 04:58:06;;;;;;;;;;;6.30;99.90;;;;;;6115723;23;19936;-60
2022/10/09 05:00:32;;;;;;;;;;;6.30;99.90;;;;;;6115559;23;20047;-61
2022/10/09 05:02:57;;;;;;;;;;;6.40;99.90;;;;;;6115682;23;19964;-60
2022/10/09 05:05:23;;;;;;;;;;;6.30;99.90;;;;;;6115673;23;19932;-61
2022/10/09 05:07:49;;;;;;;;;;;6.30;99.90;;;;;;6114054;23;19977;-60
2022/10/09 05:10:14;;;;;;;;;;;6.50;99.90;;;;;;6115818;23;19925;-61
2022/10/09 05:12:40;;;;;;;;;;;6.90;99.90;;;;;;6117271;23;19932;-60
2022/10/09 05:15:06;;;;;;;;;;;6.30;99.90;;;;;;6116579;23;20405;-61
2022/10/09 05:17:31;;;;;;;;;;;6.30;99.90;;;;;;6118014;23;19939;-60
2022/10/09 05:19:57;;;;;;;;;;;6.20;99.90;;;;;;6117405;23;20385;-61
2022/10/09 05:22:22;;;;;;;;;;;6.20;99.90;;;;;;6117715;23;19925;-61
2022/10/09 05:24:48;;;;;;;;;;;6.20;99.90;;;;;;6114565;23;20015;-61
2022/10/09 05:27:13;;;;;;;;;;;6.20;99.90;;;;;;6117137;23;19924;-61
2022/10/09 05:29:39;;;;;;;;;;;6.20;99.90;;;;;;6116609;23;19924;-61
2022/10/09 05:32:04;;;;;;;;;;;6.20;99.90;;;;;;6117689;23;19925;-61
2022/10/09 05:34:30;;;;;;;;;;;6.10;99.90;;;;;;6117263;23;19924;-62
2022/10/09 05:36:55;;;;;;;;;;;6.10;99.90;;;;;;6117171;23;19929;-65
2022/10/09 05:39:21;;;;;;;;;;;6.10;99.90;;;;;;6117004;23;19932;-65
2022/10/09 05:41:46;;;;;;;;;;;6.10;99.90;;;;;;6117578;23;20345;-65
2022/10/09 05:44:12;;;;;;;;;;;6.10;99.90;;;;;;6116931;23;19925;-65
2022/10/09 05:46:37;;;;;;;;;;;6.00;99.90;;;;;;6117564;23;19925;-66
2022/10/09 05:49:04;;;;;;;;;;;6.10;99.90;;;;;;6117426;23;19932;-62
2022/10/09 05:51:39;;;;;;;;;;;6.10;99.90;;;;;;6114205;23;19932;-63
2022/10/09 05:54:05;;;;;;;;;;;5.90;99.90;;;;;;6116893;23;20379;-61
2022/10/09 05:56:32;;;;;;;;;;;6.20;99.90;;;;;;6116291;23;19925;-64
2022/10/09 05:58:58;;;;;;;;;;;6.10;99.90;;;;;;6116941;23;19936;-62
2022/10/09 06:01:25;;;;;;;;;;;6.10;99.90;;;;;;6117088;23;19929;-61
2022/10/09 06:03:52;;;;;;;;;;;6.10;99.90;;;;;;6117068;23;19925;-61
2022/10/09 06:06:18;;;;;;;;;;;6.10;99.90;;;;;;6116004;23;19924;-61
2022/10/09 06:08:44;;;;;;;;;;;6.10;99.90;;;;;;6116733;23;19925;-61
2022/10/09 06:11:15;;;;;;;;;;;6.10;99.90;;;;;;6116938;23;20451;-61
2022/10/09 06:13:41;;;;;;;;;;;6.10;99.90;;;;;;6116344;23;19925;-61
2022/10/09 06:16:07;;;;;;;;;;;6.10;99.90;;;;;;6117283;23;20251;-60
2022/10/09 06:18:33;;;;;;;;;;;6.10;99.90;;;;;;6116657;23;19925;-66
2022/10/09 06:21:00;;;;;;;;;;;6.10;99.90;;;;;;6116469;23;20354;-62
2022/10/09 06:23:26;;;;;;;;;;;6.10;99.90;;;;;;6117033;23;20011;-62
2022/10/09 06:25:51;;;;;;;;;;;6.20;99.90;;;;;;6117032;23;19956;-62
2022/10/09 06:28:17;;;;;;;;;;;6.20;99.90;;;;;;6116706;23;19974;-62
2022/10/09 06:30:42;;;;;;;;;;;6.70;99.90;;;;;;6116654;23;19925;-65
2022/10/09 06:33:08;;;;;;;;;;;6.20;99.90;;;;;;6116783;23;19952;-66
2022/10/09 06:35:34;;;;;;;;;;;6.30;99.90;;;;;;6116508;23;19971;-65
2022/10/09 06:37:59;;;;;;;;;;;6.40;99.90;;;;;;6116584;23;20331;-66
2022/10/09 06:40:25;;;;;;;;;;;6.90;99.90;;;;;;6116500;23;20336;-65
2022/10/09 06:42:50;;;;;;;;;;;6.50;99.90;;;;;;6116508;23;20336;-66
2022/10/09 06:45:16;;;;;;;;;;;6.60;99.90;;;;;;6116897;23;19948;-64
2022/10/09 06:47:41;;;;;;;;;;;6.60;99.90;;;;;;6116195;23;19928;-61
2022/10/09 06:50:07;;;;;;;;;;;6.70;99.90;;;;;;6116123;23;19932;-61
2022/10/09 06:52:33;;;;;;;;;;;6.70;99.90;;;;;;6117140;23;19925;-61
2022/10/09 06:54:58;;;;;;;;;;;6.70;99.90;;;;;;6116748;23;20293;-61
2022/10/09 06:57:24;;;;;;;;;;;6.80;99.90;;;;;;6115976;23;20328;-61
2022/10/09 06:59:50;;;;;;;;;;;6.90;99.90;;;;;;6116947;23;19971;-61
2022/10/09 07:02:16;;;;;;;;;;;6.80;99.90;;;;;;6116069;23;19933;-61
2022/10/09 07:04:42;;;;;;;;;;;6.80;99.90;;;;;;6116269;23;19925;-61
2022/10/09 07:07:07;;;;;;;;;;;6.90;99.90;;;;;;6115824;23;19970;-62
2022/10/09 07:09:33;;;;;;;;;;;6.90;99.90;;;;;;6114300;23;19925;-61
2022/10/09 07:11:59;;;;;;;;;;;6.90;99.90;;;;;;6115843;23;19925;-61
2022/10/09 07:14:24;;;;;;;;;;;6.90;99.90;;;;;;6115709;23;19931;-61
2022/10/09 07:16:50;;;;;;;;;;;7.00;99.90;;;;;;6114187;23;20038;-62
2022/10/09 07:19:17;;;;;;;;;;;7.00;99.90;;;;;;6116283;23;19935;-61
2022/10/09 07:21:43;;;;;;;;;;;7.00;99.90;;;;;;6116124;23;19925;-61
2022/10/09 07:24:09;;;;;;;;;;;7.00;99.90;;;;;;6114529;23;20003;-61
2022/10/09 07:26:37;;;;;;;;;;;7.10;99.90;;;;;;6116369;23;20449;-61
2022/10/09 07:29:03;;;;;;;;;;;7.10;99.90;;;;;;6090449;23;19998;-62
2022/10/09 07:31:29;;;;;;;;;;;7.20;99.90;;;;;;6116959;23;19928;-62
2022/10/09 07:33:57;;;;;;;;;;;7.80;99.90;;;;;;6116374;23;20372;-61
2022/10/09 07:36:23;;;;;;;;;;;7.40;99.90;;;;;;6115468;23;19932;-63
2022/10/09 07:38:50;;;;;;;;;;;7.40;99.90;;;;;;6116282;23;19925;-65
2022/10/09 07:41:15;;;;;;;;;;;7.50;99.90;;;;;;6115897;23;19925;-62
2022/10/09 07:43:41;;;;;;;;;;;7.60;99.90;;;;;;6113862;23;19994;-61
2022/10/09 07:46:10;;;;;;;;;;;7.60;99.90;;;;;;6116500;23;19925;-62
2022/10/09 07:48:35;;;;;;;;;;;7.70;99.90;;;;;;6117089;23;19925;-65
2022/10/09 07:51:09;;;;;;;;;;;7.70;99.90;;;;;;6116690;23;19925;-62
2022/10/09 07:53:34;;;;;;;;;;;7.80;99.90;;;;;;6116353;23;20288;-62
2022/10/09 07:56:00;;;;;;;;;;;8.00;99.90;;;;;;6116336;23;19925;-62
2022/10/09 07:58:25;;;;;;;;;;;9.20;99.90;;;;;;6115680;23;20336;-62
2022/10/09 08:00:51;;;;;;;;;;;8.10;99.90;;;;;;6115681;23;19924;-63
2022/10/09 08:03:17;;;;;;;;;;;8.30;99.90;;;;;;6115953;23;19925;-63
2022/10/09 08:05:42;;;;;;;;;;;8.30;99.90;;;;;;6116465;23;19929;-63
2022/10/09 08:08:08;;;;;;;;;;;8.40;99.90;;;;;;6116074;23;19924;-62
2022/10/09 08:10:34;;;;;;;;;;;8.50;99.90;;;;;;6115764;23;19931;-64
2022/10/09 08:12:59;;;;;;;;;;;8.60;99.90;;;;;;6115609;23;19947;-62
2022/10/09 08:15:25;;;;;;;;;;;8.70;99.90;;;;;;6115514;23;19932;-65
2022/10/09 08:17:51;;;;;;;;;;;8.80;99.90;;;;;;6115342;23;20353;-64
2022/10/09 08:20:17;;;;;;;;;;;8.90;99.90;;;;;;6113972;23;19928;-66
2022/10/09 08:22:42;;;;;;;;;;;9.00;99.90;;;;;;6113940;23;19924;-65
2022/10/09 08:25:08;;;;;;;;;;;9.10;99.90;;;;;;6115379;23;19991;-62
2022/10/09 08:27:33;;;;;;;;;;;9.20;99.90;;;;;;6113843;23;19925;-62
2022/10/09 08:29:59;;;;;;;;;;;9.40;99.90;;;;;;6115160;23;20240;-61
2022/10/09 08:32:24;;;;;;;;;;;8.00;99.90;;;;;;6115105;23;20008;-62
2022/10/09 08:34:51;;;;;;;;;;;9.60;99.90;;;;;;6115138;23;19932;-63
2022/10/09 08:37:17;;;;;;;;;;;9.80;99.90;;;;;;6114373;23;19932;-62
2022/10/09 08:39:42;;;;;;;;;;;10.00;99.90;;;;;;6113620;23;19944;-64
2022/10/09 08:42:15;;;;;;;;;;;10.20;99.90;;;;;;6113382;23;19925;-62
2022/10/09 08:44:44;;;;;;;;;;;10.30;99.90;;;;;;6113637;23;20003;-62
2022/10/09 08:47:25;;;;;;;;;;;10.50;99.90;;;;;;6112061;23;20000;-62
2022/10/09 08:49:58;;;;;;;;;;;10.60;99.90;;;;;;6112939;23;19925;-61
2022/10/09 08:52:23;;;;;;;;;;;10.80;99.90;;;;;;6114774;23;19925;-61
2022/10/09 08:54:50;;;;;;;;;;;11.00;99.90;;;;;;6114958;23;19936;-61
2022/10/09 08:57:16;;;;;;;;;;;11.20;99.90;;;;;;6114764;23;19928;-61
2022/10/09 08:59:42;;;;;;;;;;;11.50;99.90;;;;;;6114115;23;19978;-61
2022/10/09 09:02:20;;;;;;;;;;;12.00;99.90;;;;;;6115128;23;19925;-61
2022/10/09 09:04:48;;;;;;;;;;;12.20;99.90;;;;;;6114732;23;20540;-62
2022/10/09 09:07:20;;;;;;;;;;;12.70;99.90;;;;;;6114476;23;19982;-61
2022/10/09 09:09:52;;;;;;;;;;;13.10;99.90;;;;;;6113783;23;19924;-61
2022/10/09 09:12:24;;;;;;;;;;;13.70;99.90;;;;;;6115116;23;19959;-62
2022/10/09 09:15:08;;;;;;;;;;;13.90;99.90;;;;;;6114997;23;19977;-62
2022/10/09 09:17:33;;;;;;;;;;;14.30;99.90;;;;;;6112404;23;19925;-62
2022/10/09 09:20:02;;;;;;;;;;;14.70;99.90;;;;;;6113874;23;19931;-61
2022/10/09 09:22:28;;;;;;;;;;;15.10;99.90;;;;;;6114149;23;20248;-62
2022/10/09 09:24:55;;;;;;;;;;;15.30;99.90;;;;;;6114552;23;19924;-62
2022/10/09 09:27:25;;;;;;;;;;;15.60;99.90;;;;;;6111821;23;19932;-62
2022/10/09 09:29:57;;;;;;;;;;;15.70;99.90;;;;;;6112157;23;19996;-62
2022/10/09 09:32:26;;;;;;;;;;;16.00;99.90;;;;;;6113862;23;20453;-63
2022/10/09 09:34:55;;;;;;;;;;;16.60;99.90;;;;;;6114442;23;20263;-64
2022/10/09 09:37:22;;;;;;;;;;;16.80;99.90;;;;;;6115697;23;19925;-62
2022/10/09 09:39:47;;;;;;;;;;;16.40;99.90;;;;;;6115949;23;20248;-62
2022/10/09 09:42:17;;;;;;;;;;;16.80;99.90;;;;;;6114260;23;20387;-62
2022/10/09 09:44:48;;;;;;;;;;;16.90;99.90;;;;;;6114509;23;19925;-65
2022/10/09 09:47:17;;;;;;;;;;;17.80;99.90;;;;;;6115873;23;20264;-63
2022/10/09 09:49:53;;;;;;;;;;;17.90;99.90;;;;;;6113708;23;19931;-64
2022/10/09 09:52:19;;;;;;;;;;;17.80;99.90;;;;;;6113974;23;20328;-64
2022/10/09 09:54:47;;;;;;;;;;;17.80;99.90;;;;;;6115942;23;19947;-63
2022/10/09 09:57:13;;;;;;;;;;;17.50;99.90;;;;;;6114820;23;20236;-65
2022/10/09 09:59:39;;;;;;;;;;;17.80;99.90;;;;;;6116573;23;19932;-65
2022/10/09 10:02:05;;;;;;;;;;;17.80;99.90;;;;;;6113642;23;19925;-66
2022/10/09 10:04:31;;;;;;;;;;;18.50;99.90;;;;;;6116981;23;19925;-65
2022/10/09 10:06:56;;;;;;;;;;;18.80;99.90;;;;;;6116795;23;19928;-64
2022/10/09 10:09:22;;;;;;;;;;;17.90;99.90;;;;;;6116618;23;19934;-63
2022/10/09 10:11:47;;;;;;;;;;;17.50;99.90;;;;;;6116843;23;19932;-65
2022/10/09 10:14:14;;;;;;;;;;;17.90;99.90;;;;;;6116116;23;19952;-65
2022/10/09 10:16:40;;;;;;;;;;;17.80;99.90;;;;;;6116760;23;20003;-64
2022/10/09 10:19:17;;;;;;;;;;;17.20;99.90;;;;;;6116366;23;19971;-64
2022/10/09 10:21:46;;;;;;;;;;;17.50;99.90;;;;;;6114730;23;19991;-66
2022/10/09 10:24:17;;;;;;;;;;;17.30;99.90;;;;;;6116445;23;19960;-66
2022/10/09 10:26:46;;;;;;;;;;;17.30;99.90;;;;;;6116378;23;19924;-65
2022/10/09 10:29:34;;;;;;;;;;;17.40;99.90;;;;;;6116279;23;19992;-66
2022/10/09 10:32:02;;;;;;;;;;;17.20;99.90;;;;;;6116021;23;19925;-67
2022/10/09 10:34:30;;;;;;;;;;;17.10;99.90;;;;;;6115627;23;20361;-64
2022/10/09 10:36:59;;;;;;;;;;;17.20;99.90;;;;;;6116119;23;19929;-66
2022/10/09 10:39:30;;;;;;;;;;;16.60;99.90;;;;;;6116060;23;19924;-65
2022/10/09 10:41:59;;;;;;;;;;;16.90;99.90;;;;;;6114383;23;20404;-64
2022/10/09 10:44:30;;;;;;;;;;;16.70;99.90;;;;;;6116244;23;19925;-63
2022/10/09 10:47:02;;;;;;;;;;;16.80;99.90;;;;;;6114877;23;19936;-65
2022/10/09 10:49:28;;;;;;;;;;;16.90;99.90;;;;;;6114743;23;19932;-63
2022/10/09 10:52:12;;;;;;;;;;;17.20;99.90;;;;;;6115454;23;19925;-64
2022/10/09 10:54:39;;;;;;;;;;;16.90;99.90;;;;;;6115511;23;19971;-65
2022/10/09 10:57:11;;;;;;;;;;;16.90;99.90;;;;;;6115243;23;19978;-64
2022/10/09 10:59:46;;;;;;;;;;;17.10;99.90;;;;;;6115360;23;19929;-63
2022/10/09 11:02:29;;;;;;;;;;;16.90;99.90;;;;;;6115177;23;19925;-64
2022/10/09 11:05:02;;;;;;;;;;;17.20;99.90;;;;;;6114778;23;19932;-67
2022/10/09 11:07:40;;;;;;;;;;;17.20;99.90;;;;;;6115210;23;19932;-64
2022/10/09 11:10:15;;;;;;;;;;;17.10;99.90;;;;;;6114984;23;19948;-64
2022/10/09 11:12:41;;;;;;;;;;;17.10;99.90;;;;;;6115135;23;19983;-66
2022/10/09 11:15:25;;;;;;;;;;;17.10;99.90;;;;;;6114800;23;19939;-64
2022/10/09 11:17:50;;;;;;;;;;;17.40;99.90;;;;;;6115442;23;19932;-67
2022/10/09 11:20:16;;;;;;;;;;;17.40;99.90;;;;;;6116108;23;19929;-66
2022/10/09 11:23:14;;;;;;;;;;;17.90;99.90;;;;;;6116156;23;20371;-65
2022/10/09 11:25:52;;;;;;;;;;;17.60;99.90;;;;;;6131881;23;20328;-64
2022/10/09 11:28:24;;;;;;;;;;;17.90;99.90;;;;;;6115408;23;19965;-64
2022/10/09 11:31:02;;;;;;;;;;;18.20;99.90;;;;;;6115883;23;20019;-68
2022/10/09 11:33:37;;;;;;;;;;;18.20;99.90;;;;;;6116328;23;19925;-68
2022/10/09 11:36:12;;;;;;;;;;;18.20;99.90;;;;;;6116339;23;19929;-67
2022/10/09 11:38:56;;;;;;;;;;;18.40;99.90;;;;;;6116131;23;19935;-65
2022/10/09 11:41:22;;;;;;;;;;;18.90;99.90;;;;;;6115796;23;19932;-66
2022/10/09 11:44:11;;;;;;;;;;;19.30;99.90;;;;;;6116374;23;19925;-67
2022/10/09 11:46:40;;;;;;;;;;;19.40;99.90;;;;;;6115852;23;19933;-66
2022/10/09 11:49:08;;;;;;;;;;;19.70;99.90;;;;;;6115982;23;20347;-65
2022/10/09 11:51:56;;;;;;;;;;;20.00;99.90;;;;;;6115387;23;20441;-68
2022/10/09 11:54:22;;;;;;;;;;;20.10;99.90;;;;;;6116541;23;19992;-64
2022/10/09 11:57:01;;;;;;;;;;;20.20;99.90;;;;;;6115666;23;20335;-63
2022/10/09 11:59:29;;;;;;;;;;;20.50;99.90;;;;;;6116177;23;20022;-63
2022/10/09 12:01:56;;;;;;;;;;;20.20;99.90;;;;;;6115287;23;19925;-63
2022/10/09 12:04:24;;;;;;;;;;;20.50;99.90;;;;;;6115422;23;19925;-63
2022/10/09 12:06:55;;;;;;;;;;;20.40;99.90;;;;;;6115967;23;20328;-64
2022/10/09 12:09:26;;;;;;;;;;;19.70;99.90;;;;;;6116565;23;19925;-63
2022/10/09 12:12:00;;;;;;;;;;;19.20;99.90;;;;;;6116596;23;20392;-63
2022/10/09 12:14:28;;;;;;;;;;;19.00;99.90;;;;;;6116536;23;19925;-63
2022/10/09 12:16:54;;;;;;;;;;;19.30;99.90;;;;;;6116197;23;20398;-64
2022/10/09 12:19:22;;;;;;;;;;;19.10;99.90;;;;;;6115667;23;19929;-63
2022/10/09 12:21:59;;;;;;;;;;;18.90;99.90;;;;;;6116618;23;19960;-64
2022/10/09 12:24:27;;;;;;;;;;;18.50;99.90;;;;;;6116006;23;20366;-65
2022/10/09 12:26:54;;;;;;;;;;;18.90;99.90;;;;;;6116394;23;20351;-64
2022/10/09 12:29:24;;;;;;;;;;;18.80;99.90;;;;;;6116142;23;19925;-63
2022/10/09 12:31:50;;;;;;;;;;;18.70;99.90;;;;;;6116380;23;19932;-63
2022/10/09 12:34:19;;;;;;;;;;;18.50;99.90;;;;;;6115105;23;20357;-63
2022/10/09 12:36:44;;;;;;;;;;;18.50;99.90;;;;;;6115154;23;19929;-63
2022/10/09 12:39:14;;;;;;;;;;;18.60;99.90;;;;;;6115813;23;19970;-63
2022/10/09 12:41:42;;;;;;;;;;;18.40;99.90;;;;;;6114508;23;20008;-67
2022/10/09 12:44:14;;;;;;;;;;;18.30;99.90;;;;;;6115057;23;19925;-64
2022/10/09 12:46:40;;;;;;;;;;;18.30;99.90;;;;;;6115445;23;19925;-63
2022/10/09 12:49:15;;;;;;;;;;;18.30;99.90;;;;;;6116129;23;19986;-64
2022/10/09 12:51:48;;;;;;;;;;;18.30;99.90;;;;;;6115611;23;19925;-63
2022/10/09 12:54:14;;;;;;;;;;;18.40;99.90;;;;;;6115359;23;19925;-66
2022/10/09 12:56:39;;;;;;;;;;;18.30;99.90;;;;;;6113330;23;19986;-63
2022/10/09 12:59:05;;;;;;;;;;;18.20;99.90;;;;;;6113969;23;19925;-64
2022/10/09 13:01:32;;;;;;;;;;;18.40;99.90;;;;;;6115220;23;19925;-64
2022/10/09 13:04:07;;;;;;;;;;;18.20;99.90;;;;;;6114271;23;19992;-65
2022/10/09 13:06:43;;;;;;;;;;;18.50;99.90;;;;;;6114983;23;19925;-63
2022/10/09 13:09:18;;;;;;;;;;;18.30;99.90;;;;;;6115018;23;19921;-63
2022/10/09 13:11:44;;;;;;;;;;;18.50;99.90;;;;;;6115451;23;19929;-64
2022/10/09 13:14:42;;;;;;;;;;;18.70;99.90;;;;;;6115831;23;19925;-63
2022/10/09 13:17:26;;;;;;;;;;;18.60;99.90;;;;;;6131836;23;20259;-63
2022/10/09 13:19:52;;;;;;;;;;;18.60;99.90;;;;;;6115779;23;19991;-64
2022/10/09 13:22:19;;;;;;;;;;;18.60;99.90;;;;;;6115609;23;19928;-64
2022/10/09 13:24:46;;;;;;;;;;;18.70;99.90;;;;;;6115317;23;19925;-67
2022/10/09 13:27:18;;;;;;;;;;;18.60;99.90;;;;;;6115113;23;19964;-64
2022/10/09 13:29:44;;;;;;;;;;;18.60;99.90;;;;;;6115482;23;19925;-63
2022/10/09 13:32:13;;;;;;;;;;;18.70;99.90;;;;;;6115771;23;19931;-63
2022/10/09 13:34:39;;;;;;;;;;;18.70;99.90;;;;;;6117199;23;20282;-63
2022/10/09 13:37:04;;;;;;;;;;;18.70;99.90;;;;;;6116602;23;19925;-63
2022/10/09 13:39:30;;;;;;;;;;;19.00;99.90;;;;;;6116288;23;19979;-63
2022/10/09 13:41:56;;;;;;;;;;;20.70;99.90;;;;;;6115415;23;19925;-64
2022/10/09 13:44:22;;;;;;;;;;;20.60;99.90;;;;;;6116479;23;20652;-64
2022/10/09 13:46:47;;;;;;;;;;;22.30;99.90;;;;;;6117527;23;19932;-63
2022/10/09 13:49:13;;;;;;;;;;;23.50;99.50;;;;;;6116865;23;20248;-63
2022/10/09 13:51:38;;;;;;;;;;;24.30;98.10;;;;;;6117744;23;19999;-64
2022/10/09 13:54:04;;;;;;;;;;;25.00;97.70;;;;;;6117153;23;20406;-67
2022/10/09 13:56:30;;;;;;;;;;;24.80;96.20;;;;;;6117200;23;19956;-68
2022/10/09 13:58:55;;;;;;;;;;;22.50;96.40;;;;;;6117212;23;20328;-67
2022/10/09 14:01:21;;;;;;;;;;;21.30;98.10;;;;;;6116689;23;20341;-68
2022/10/09 14:03:46;;;;;;;;;;;21.00;99.00;;;;;;6116626;23;19929;-66
2022/10/09 14:06:12;;;;;;;;;;;20.70;99.70;;;;;;6117097;23;19925;-68
2022/10/09 14:08:39;;;;;;;;;;;19.90;98.20;;;;;;6115961;23;20283;-67
2022/10/09 14:11:05;;;;;;;;;;;19.80;99.90;;;;;;6117312;23;20485;-67
2022/10/09 14:13:30;;;;;;;;;;;19.30;99.90;;;;;;6116148;23;19925;-66
2022/10/09 14:15:56;;;;;;;;;;;18.80;99.90;;;;;;6114217;23;19929;-65
2022/10/09 14:18:22;;;;;;;;;;;18.70;99.90;;;;;;6108629;23;20068;-66
2022/10/09 14:20:47;;;;;;;;;;;18.50;99.90;;;;;;6115428;23;19932;-63
2022/10/09 14:23:13;;;;;;;;;;;18.40;99.90;;;;;;6114157;23;19925;-63
2022/10/09 14:25:38;;;;;;;;;;;18.30;99.90;;;;;;6114858;23;20054;-64
2022/10/09 14:28:04;;;;;;;;;;;18.20;99.90;;;;;;6114516;23;19936;-63